Time;durP1;ratioP1;P1;durP2;ratioP2;P2;SDS_P1;SDS_P2;PMS_P1;PMS_P2;Temp;Humidity;BMP_temperature;BMP_pressure;BME280_temperature;BME280_humidity;BME280_pressure;Samples;Min_cycle;Max_cycle;Signal;HPM_P1;HPM_P2
2023/09/17 00:02:20;;;;;;;6.15;5.20;;;;;;;18.67;100.00;100375.81;4916174;29;20047;-65
2023/09/17 00:05:23;;;;;;;7.15;5.05;;;;;;;18.68;100.00;100377.47;4916212;29;20410;-65
2023/09/17 00:08:26;;;;;;;10.27;5.68;;;;;;;18.62;100.00;100378.03;4916310;29;20094;-66
2023/09/17 00:11:30;;;;;;;5.53;4.88;;;;;;;18.58;100.00;100377.47;4916324;29;20046;-65
2023/09/17 00:14:34;;;;;;;6.47;4.50;;;;;;;18.59;100.00;100363.25;4916493;29;20157;-65
2023/09/17 00:17:37;;;;;;;6.78;4.68;;;;;;;18.53;100.00;100368.25;4916655;29;20055;-65
2023/09/17 00:20:40;;;;;;;11.38;6.18;;;;;;;18.49;100.00;100377.44;4916314;29;20115;-65
2023/09/17 00:23:44;;;;;;;11.93;4.75;;;;;;;18.41;100.00;100366.66;4916213;29;20521;-65
2023/09/17 00:26:47;;;;;;;8.13;4.68;;;;;;;18.40;100.00;100372.94;4915872;29;20114;-65
2023/09/17 00:29:50;;;;;;;6.40;4.65;;;;;;;18.33;100.00;100362.88;4921761;29;20066;-65
2023/09/17 00:32:54;;;;;;;6.60;4.80;;;;;;;18.27;100.00;100366.06;4910698;29;20095;-65
2023/09/17 00:35:57;;;;;;;12.15;5.13;;;;;;;18.23;100.00;100363.84;4910964;29;20047;-65
2023/09/17 00:39:02;;;;;;;8.20;4.70;;;;;;;18.21;100.00;100363.97;4921912;29;20043;-65
2023/09/17 00:42:06;;;;;;;8.90;4.30;;;;;;;18.17;100.00;100365.19;4922658;29;20132;-65
2023/09/17 00:45:11;;;;;;;6.90;4.40;;;;;;;18.13;100.00;100364.63;4922551;29;20123;-65
2023/09/17 00:48:15;;;;;;;10.63;4.68;;;;;;;18.12;100.00;100367.41;4922422;29;20422;-65
2023/09/17 00:51:18;;;;;;;8.45;4.80;;;;;;;18.20;100.00;100374.69;4922488;29;20528;-65
2023/09/17 00:54:23;;;;;;;7.68;5.18;;;;;;;18.26;100.00;100368.88;4922299;29;20043;-65
2023/09/17 00:57:27;;;;;;;14.95;5.30;;;;;;;18.19;100.00;100373.84;4922060;29;20114;-65
2023/09/17 01:00:33;;;;;;;9.55;4.88;;;;;;;18.21;100.00;100368.41;4922256;29;20050;-65
2023/09/17 01:03:36;;;;;;;8.15;5.35;;;;;;;18.20;100.00;100370.22;4910354;29;20043;-65
2023/09/17 01:06:41;;;;;;;6.18;4.65;;;;;;;18.19;100.00;100368.56;4922238;29;20075;-65
2023/09/17 01:09:44;;;;;;;6.82;4.38;;;;;;;18.20;100.00;100366.75;4910504;29;20103;-65
2023/09/17 01:12:48;;;;;;;8.02;4.75;;;;;;;18.22;100.00;100368.28;4922257;29;20051;-66
2023/09/17 01:15:52;;;;;;;7.35;4.57;;;;;;;18.24;100.00;100371.63;4910686;29;20047;-66
2023/09/17 01:18:55;;;;;;;8.60;5.18;;;;;;;18.23;100.00;100362.03;4922318;29;20046;-66
2023/09/17 01:22:06;;;;;;;8.30;4.32;;;;;;;18.25;100.00;100360.09;4910290;29;20476;-66
2023/09/17 01:25:22;;;;;;;11.65;4.50;;;;;;;18.21;100.00;100361.31;4910464;29;20470;-66
2023/09/17 01:28:25;;;;;;;8.50;4.57;;;;;;;18.19;100.00;100359.75;4921964;29;20055;-65
2023/09/17 01:31:29;;;;;;;7.60;5.05;;;;;;;18.18;100.00;100351.00;4910459;29;20043;-65
2023/09/17 01:34:37;;;;;;;12.23;6.35;;;;;;;18.18;100.00;100356.28;4922341;29;20050;-65
2023/09/17 01:37:58;;;;;;;7.93;5.57;;;;;;;18.11;100.00;100353.34;4910569;29;20059;-66
2023/09/17 01:41:03;;;;;;;7.97;5.40;;;;;;;18.13;100.00;100351.41;4919013;29;20471;-65
2023/09/17 01:44:08;;;;;;;9.68;4.93;;;;;;;18.20;100.00;100354.34;4907308;29;20059;-65
2023/09/17 01:47:11;;;;;;;10.18;5.53;;;;;;;18.21;100.00;100352.53;4918909;29;20047;-65
2023/09/17 01:50:17;;;;;;;9.18;4.95;;;;;;;18.21;100.00;100358.66;4906780;29;20046;-66
2023/09/17 01:53:22;;;;;;;10.60;5.20;;;;;;;18.22;100.00;100355.06;4918927;29;20055;-66
2023/09/17 01:56:26;;;;;;;12.27;6.00;;;;;;;18.02;100.00;100362.06;4918885;29;20046;-65
2023/09/17 01:59:29;;;;;;;7.95;4.97;;;;;;;18.02;100.00;100356.75;4907008;29;20533;-65
2023/09/17 02:02:33;;;;;;;9.77;5.18;;;;;;;18.13;100.00;100355.84;4906581;29;20043;-66
2023/09/17 02:05:36;;;;;;;7.60;4.80;;;;;;;18.14;100.00;100357.53;4918705;29;20119;-65
2023/09/17 02:08:40;;;;;;;9.85;5.43;;;;;;;18.13;100.00;100355.84;4918882;29;20463;-65
2023/09/17 02:11:43;;;;;;;11.55;5.32;;;;;;;18.14;100.00;100357.53;4918570;29;20047;-66
2023/09/17 02:14:46;;;;;;;9.77;5.10;;;;;;;18.17;100.00;100359.91;4906896;29;20051;-65
2023/09/17 02:17:50;;;;;;;5.00;4.18;;;;;;;18.19;100.00;100355.34;4906795;29;20046;-65
2023/09/17 02:20:54;;;;;;;9.52;4.70;;;;;;;18.17;100.00;100357.25;4906545;29;20165;-66
2023/09/17 02:23:57;;;;;;;8.07;5.10;;;;;;;18.16;100.00;100357.41;4918206;29;20136;-66
2023/09/17 02:27:01;;;;;;;7.97;5.00;;;;;;;18.20;100.00;100359.63;4918437;29;20051;-65
2023/09/17 02:30:05;;;;;;;5.40;4.50;;;;;;;18.22;100.00;100360.34;4906642;29;20095;-65
2023/09/17 02:33:10;;;;;;;9.50;4.65;;;;;;;18.21;100.00;100352.53;4906569;29;20142;-66
2023/09/17 02:36:13;;;;;;;13.10;5.35;;;;;;;18.15;100.00;100356.53;4918136;29;20039;-65
2023/09/17 02:39:17;;;;;;;10.68;5.20;;;;;;;18.12;100.00;100348.88;4906451;29;20446;-65
2023/09/17 02:42:21;;;;;;;9.93;4.90;;;;;;;18.03;100.00;100350.53;4917816;29;20554;-65
2023/09/17 02:45:25;;;;;;;9.52;4.97;;;;;;;18.08;100.00;100353.59;4917295;29;20051;-66
2023/09/17 02:48:28;;;;;;;14.05;4.78;;;;;;;18.13;100.00;100355.84;4906269;29;20074;-65
2023/09/17 02:51:32;;;;;;;7.38;5.10;;;;;;;18.15;100.00;100353.06;4917684;29;20558;-65
2023/09/17 02:54:35;;;;;;;8.13;5.47;;;;;;;18.17;100.00;100362.56;4905896;29;20047;-66
2023/09/17 02:57:38;;;;;;;10.98;6.63;;;;;;;18.15;100.00;100353.91;4906159;29;20108;-66
2023/09/17 03:00:44;;;;;;;12.98;6.05;;;;;;;18.17;100.00;100344.03;4917716;29;20051;-66
2023/09/17 03:03:47;;;;;;;12.63;5.50;;;;;;;18.17;100.00;100346.69;4905843;29;20091;-66
2023/09/17 03:06:51;;;;;;;10.20;5.30;;;;;;;18.16;100.00;100346.81;4917617;29;20080;-66
2023/09/17 03:09:59;;;;;;;11.48;5.90;;;;;;;18.05;100.00;100347.75;4905626;29;20123;-66
2023/09/17 03:13:03;;;;;;;9.05;5.30;;;;;;;18.08;100.00;100339.53;4905061;29;20135;-66
2023/09/17 03:16:06;;;;;;;8.68;5.13;;;;;;;18.08;100.00;100342.19;4917345;29;20095;-65
2023/09/17 03:19:12;;;;;;;12.50;4.55;;;;;;;18.09;100.00;100349.13;4905694;29;20098;-65
2023/09/17 03:22:16;;;;;;;6.25;4.32;;;;;;;18.09;100.00;100352.66;4905587;29;20111;-66
2023/09/17 03:25:20;;;;;;;7.57;5.03;;;;;;;18.07;100.00;100340.50;4917157;29;20513;-65
2023/09/17 03:28:25;;;;;;;10.45;5.35;;;;;;;18.06;100.00;100344.09;4905344;29;20063;-65
2023/09/17 03:31:29;;;;;;;14.00;6.88;;;;;;;18.03;100.00;100347.88;4905425;29;20047;-65
2023/09/17 03:34:33;;;;;;;8.48;5.47;;;;;;;17.99;100.00;100343.81;4905260;29;20098;-65
2023/09/17 03:37:37;;;;;;;13.48;6.35;;;;;;;17.99;100.00;100337.69;4897920;29;20047;-66
2023/09/17 03:40:41;;;;;;;6.78;5.75;;;;;;;17.99;100.00;100342.97;4917055;29;20043;-66
2023/09/17 03:43:45;;;;;;;13.05;5.10;;;;;;;17.99;100.00;100335.03;4904932;29;20527;-65
2023/09/17 03:46:49;;;;;;;8.25;5.25;;;;;;;17.92;100.00;100341.84;4905097;29;20518;-66
2023/09/17 03:49:52;;;;;;;7.10;4.82;;;;;;;17.88;100.00;100336.81;4899405;29;20054;-66
2023/09/17 03:52:57;;;;;;;10.73;5.03;;;;;;;17.90;100.00;100341.97;4917005;29;20127;-65
2023/09/17 03:56:01;;;;;;;8.18;5.35;;;;;;;17.73;100.00;100332.78;4905440;29;20039;-65
2023/09/17 03:59:06;;;;;;;12.23;5.63;;;;;;;17.84;100.00;100340.69;4904941;29;20046;-65
2023/09/17 04:02:09;;;;;;;9.20;5.53;;;;;;;17.91;100.00;100338.34;4915857;29;20118;-65
2023/09/17 04:05:14;;;;;;;9.00;4.72;;;;;;;17.97;100.00;100342.28;4903841;29;20043;-65
2023/09/17 04:08:17;;;;;;;5.82;5.20;;;;;;;17.95;100.00;100341.56;4916259;29;20434;-65
2023/09/17 04:11:20;;;;;;;7.88;5.35;;;;;;;17.95;100.00;100337.09;4916368;29;20103;-65
2023/09/17 04:14:24;;;;;;;6.63;5.95;;;;;;;17.92;100.00;100342.66;4916595;29;20092;-65
2023/09/17 04:17:28;;;;;;;8.95;5.22;;;;;;;17.89;100.00;100338.47;4904365;29;20127;-65
2023/09/17 04:20:32;;;;;;;9.73;5.47;;;;;;;17.94;100.00;100334.63;4916049;29;20094;-66
2023/09/17 04:23:35;;;;;;;6.88;4.65;;;;;;;17.93;100.00;100336.41;4916300;29;20047;-66
2023/09/17 04:26:38;;;;;;;8.38;5.00;;;;;;;17.87;100.00;100327.19;4904758;29;20107;-66
2023/09/17 04:29:42;;;;;;;6.18;5.13;;;;;;;17.81;100.00;100335.66;4904361;29;20047;-65
2023/09/17 04:32:47;;;;;;;10.13;4.72;;;;;;;17.81;100.00;100340.94;4904578;29;20138;-65
2023/09/17 04:35:56;;;;;;;10.82;4.97;;;;;;;17.84;100.00;100332.75;4904727;29;20047;-65
2023/09/17 04:38:59;;;;;;;11.30;5.05;;;;;;;17.81;100.00;100340.94;4904713;29;20149;-65
2023/09/17 04:42:03;;;;;;;7.85;4.72;;;;;;;17.81;100.00;100342.75;4904430;29;20510;-65
2023/09/17 04:45:08;;;;;;;7.43;4.88;;;;;;;17.77;100.00;100339.53;4893563;29;20119;-65
2023/09/17 04:48:11;;;;;;;7.15;4.10;;;;;;;17.79;100.00;100352.63;4904425;29;20096;-65
2023/09/17 04:51:16;;;;;;;8.10;5.03;;;;;;;17.71;100.00;100350.59;4903815;29;20067;-65
2023/09/17 04:54:20;;;;;;;8.02;4.57;;;;;;;17.72;100.00;100357.56;4904160;29;20043;-65
2023/09/17 04:57:23;;;;;;;13.10;5.45;;;;;;;17.67;100.00;100352.66;4916298;29;20095;-65
2023/09/17 05:00:27;;;;;;;8.13;4.43;;;;;;;17.65;100.00;100351.97;4904289;29;20063;-65
2023/09/17 05:03:30;;;;;;;12.27;5.07;;;;;;;17.65;100.00;100351.13;4903824;29;20075;-65
2023/09/17 05:06:34;;;;;;;6.22;4.38;;;;;;;17.70;100.00;100348.91;4892778;29;20102;-65
2023/09/17 05:09:37;;;;;;;7.63;4.65;;;;;;;17.70;100.00;100346.28;4914522;29;20082;-66
2023/09/17 05:12:41;;;;;;;12.90;5.07;;;;;;;17.69;100.00;100352.53;4913856;29;20414;-66
2023/09/17 05:15:44;;;;;;;5.53;4.72;;;;;;;17.65;100.00;100353.78;4916596;29;20462;-66
2023/09/17 05:18:48;;;;;;;7.53;4.50;;;;;;;17.61;100.00;100353.19;4905988;29;20043;-65
2023/09/17 05:21:52;;;;;;;8.93;4.57;;;;;;;17.54;100.00;100361.75;4906360;29;20104;-65
2023/09/17 05:24:55;;;;;;;12.05;5.05;;;;;;;17.51;100.00;100354.09;4905728;29;20522;-65
2023/09/17 05:27:58;;;;;;;6.95;4.28;;;;;;;17.51;100.00;100364.66;4895079;29;20071;-65
2023/09/17 05:31:01;;;;;;;7.20;4.38;;;;;;;17.50;100.00;100365.63;4905876;29;20466;-66
2023/09/17 05:34:05;;;;;;;5.78;4.50;;;;;;;17.48;100.00;100375.47;4905818;29;20514;-66
2023/09/17 05:37:08;;;;;;;5.43;4.43;;;;;;;17.46;100.00;100382.72;4905624;29;20055;-66
2023/09/17 05:40:11;;;;;;;8.35;4.75;;;;;;;17.42;100.00;100382.97;4905775;29;20182;-65
2023/09/17 05:43:15;;;;;;;5.85;4.85;;;;;;;17.44;100.00;100386.31;4917413;29;20091;-66
2023/09/17 05:46:18;;;;;;;9.20;5.03;;;;;;;17.41;100.00;100389.22;4917351;29;20526;-66
2023/09/17 05:49:22;;;;;;;17.40;4.60;;;;;;;17.46;100.00;100393.28;4905492;29;20096;-66
2023/09/17 05:52:25;;;;;;;8.23;5.40;;;;;;;17.48;100.00;100394.00;4917163;29;20091;-66
2023/09/17 05:55:29;;;;;;;9.93;5.13;;;;;;;17.48;100.00;100392.19;4905398;29;20513;-66
2023/09/17 05:58:33;;;;;;;9.25;5.32;;;;;;;17.42;100.00;100390.91;4904636;29;20062;-66
2023/09/17 06:01:37;;;;;;;6.30;5.00;;;;;;;17.44;100.00;100394.25;4916683;29;20050;-66
2023/09/17 06:04:41;;;;;;;9.95;4.85;;;;;;;17.48;100.00;100388.69;4904778;29;20415;-66
2023/09/17 06:07:44;;;;;;;9.63;5.50;;;;;;;17.52;100.00;100392.78;4917141;29;20091;-66
2023/09/17 06:10:49;;;;;;;7.55;4.22;;;;;;;17.52;100.00;100395.44;4905259;29;20050;-66
2023/09/17 06:13:54;;;;;;;6.18;4.18;;;;;;;17.51;100.00;100399.03;4916550;29;20524;-66
2023/09/17 06:16:57;;;;;;;8.02;4.32;;;;;;;17.47;100.00;100400.25;4904907;29;20597;-66
2023/09/17 06:20:01;;;;;;;6.55;5.18;;;;;;;17.50;100.00;100403.47;4904165;29;20059;-66
2023/09/17 06:23:04;;;;;;;6.93;4.85;;;;;;;17.53;100.00;100405.03;4905140;29;20055;-66
2023/09/17 06:26:09;;;;;;;7.82;4.60;;;;;;;17.60;100.00;100408.84;4903872;29;20136;-66
2023/09/17 06:29:13;;;;;;;11.77;6.05;;;;;;;17.65;100.00;100414.59;4904935;29;20051;-66
2023/09/17 06:32:16;;;;;;;11.50;5.97;;;;;;;17.63;100.00;100411.22;4905023;29;20119;-66
2023/09/17 06:35:21;;;;;;;12.77;8.07;;;;;;;17.65;100.00;100417.22;4904492;29;20047;-66
2023/09/17 06:38:26;;;;;;;14.80;8.68;;;;;;;17.69;100.00;100417.81;4916503;29;20043;-66
2023/09/17 06:41:30;;;;;;;9.40;7.30;;;;;;;17.72;100.00;100418.38;4904886;29;20046;-66
2023/09/17 06:44:37;;;;;;;14.07;8.15;;;;;;;17.76;100.00;100417.16;4904936;29;20186;-66
2023/09/17 06:47:41;;;;;;;15.55;9.30;;;;;;;17.77;100.00;100405.66;4916080;29;20062;-66
2023/09/17 06:50:44;;;;;;;12.18;8.55;;;;;;;17.70;100.00;100412.38;4904509;29;20080;-66
2023/09/17 06:53:48;;;;;;;11.23;8.73;;;;;;;17.70;100.00;100401.81;4915988;29;20383;-66
2023/09/17 06:56:52;;;;;;;11.45;7.97;;;;;;;17.78;100.00;100404.69;4916132;29;20131;-67
2023/09/17 06:59:55;;;;;;;12.05;8.45;;;;;;;17.73;100.00;100406.84;4915962;29;20046;-67
2023/09/17 07:02:58;;;;;;;11.52;7.28;;;;;;;17.85;100.00;100400.53;4916097;29;20047;-66
2023/09/17 07:06:02;;;;;;;11.98;6.50;;;;;;;17.94;100.00;100396.28;4915953;29;20087;-68
2023/09/17 07:09:07;;;;;;;8.60;6.22;;;;;;;18.03;100.00;100398.16;4916148;29;20084;-67
2023/09/17 07:12:13;;;;;;;7.05;6.20;;;;;;;18.13;100.00;100395.56;4915919;29;20073;-67
2023/09/17 07:15:20;;;;;;;7.07;5.65;;;;;;;18.05;100.00;100403.28;4915859;29;20502;-67
2023/09/17 07:18:31;;;;;;;7.72;4.63;;;;;;;18.04;100.00;100404.28;4904169;29;20490;-68
2023/09/17 07:21:36;;;;;;;6.30;5.30;;;;;;;18.13;100.00;100403.50;4915487;29;20139;-68
2023/09/17 07:24:42;;;;;;;7.32;5.80;;;;;;;18.23;100.00;100404.38;4915796;29;20494;-68
2023/09/17 07:27:47;;;;;;;13.00;5.50;;;;;;;18.34;100.00;100393.66;4915799;29;20051;-67
2023/09/17 07:30:56;;;;;;;6.78;5.30;;;;;;;18.43;100.00;100397.34;4915701;29;20166;-67
2023/09/17 07:34:00;;;;;;;7.35;5.18;;;;;;;18.52;100.00;100398.34;4915992;29;20379;-67
2023/09/17 07:37:04;;;;;;;9.98;5.65;;;;;;;18.56;100.00;100391.81;4915741;29;20566;-67
2023/09/17 07:40:08;;;;;;;7.82;5.50;;;;;;;18.58;100.00;100398.66;4915421;29;20054;-66
2023/09/17 07:43:12;;;;;;;10.02;4.88;;;;;;;18.71;100.00;100398.41;4903704;29;20103;-67
2023/09/17 07:46:16;;;;;;;7.43;5.47;;;;;;;18.83;100.00;100401.81;4915078;29;20410;-67
2023/09/17 07:49:19;;;;;;;6.28;5.40;;;;;;;18.92;100.00;100397.50;4915267;29;20082;-68
2023/09/17 07:52:22;;;;;;;7.53;5.70;;;;;;;19.02;100.00;100393.06;4915472;29;20055;-66
2023/09/17 07:55:26;;;;;;;7.65;5.60;;;;;;;19.12;100.00;100395.72;4915034;29;20114;-68
2023/09/17 07:58:31;;;;;;;7.10;5.40;;;;;;;19.18;100.00;100398.66;4915202;29;20086;-74
2023/09/17 08:01:34;;;;;;;7.10;5.15;;;;;;;19.27;100.00;100389.88;4915275;29;20042;-65
2023/09/17 08:04:38;;;;;;;8.50;5.35;;;;;;;19.40;100.00;100389.59;4915134;29;20103;-61
2023/09/17 08:07:41;;;;;;;10.30;5.65;;;;;;;19.48;100.00;100396.81;4903296;29;20525;-65
2023/09/17 08:10:46;;;;;;;7.25;5.10;;;;;;;19.60;100.00;100397.53;4915117;29;20427;-66
2023/09/17 08:13:49;;;;;;;7.22;5.40;;;;;;;19.67;100.00;100401.31;4914898;29;20087;-66
2023/09/17 08:16:53;;;;;;;9.07;5.43;;;;;;;19.79;100.00;100399.34;4914798;29;20418;-67
2023/09/17 08:19:58;;;;;;;6.97;4.53;;;;;;;19.89;100.00;100398.34;4914829;29;20099;-67
2023/09/17 08:23:01;;;;;;;5.78;5.18;;;;;;;19.95;100.00;100399.59;4915013;29;20462;-68
2023/09/17 08:26:28;;;;;;;6.97;5.40;;;;;;;20.04;100.00;100406.69;4914576;29;20047;-68
2023/09/17 08:29:51;;;;;;;5.50;4.88;;;;;;;20.15;100.00;100401.19;4915421;29;20078;-68
2023/09/17 08:33:15;;;;;;;6.20;4.80;;;;;;;20.20;100.00;100398.94;4915197;29;20841;-67
2023/09/17 08:36:38;;;;;;;;;;;;;;;20.35;100.00;100401.09;4915484;29;20083;-68
2023/09/17 08:39:42;;;;;;;7.20;4.60;;;;;;;20.42;100.00;100400.41;4915301;29;19985;-69
2023/09/17 08:42:56;;;;;;;6.00;4.53;;;;;;;20.46;100.00;100403.59;4913461;29;20059;-69
2023/09/17 08:46:03;;;;;;;7.50;4.50;;;;;;;20.51;100.00;100401.34;4914857;29;20092;-69
2023/09/17 08:49:07;;;;;;;6.70;4.88;;;;;;;20.61;100.00;100399.50;4914745;29;20055;-68
2023/09/17 08:52:17;;;;;;;8.88;4.82;;;;;;;20.62;100.00;100402.97;4918857;29;20047;-69
2023/09/17 08:55:21;;;;;;;5.03;4.03;;;;;;;20.64;100.00;100396.53;4918670;29;20051;-69
2023/09/17 08:58:29;;;;;;;6.38;4.22;;;;;;;20.67;100.00;100396.22;4918625;29;20063;-64
2023/09/17 09:01:36;;;;;;;6.63;4.22;;;;;;;20.80;100.00;100389.72;4918417;29;20069;-65
2023/09/17 09:04:39;;;;;;;6.00;4.57;;;;;;;20.93;100.00;100395.53;4918145;29;20116;-65
2023/09/17 09:07:46;;;;;;;7.78;4.15;;;;;;;20.96;100.00;100389.88;4918304;29;20458;-64
2023/09/17 09:10:50;;;;;;;10.13;4.32;;;;;;;21.05;100.00;100399.63;4918381;29;20131;-65
2023/09/17 09:13:55;;;;;;;5.63;3.83;;;;;;;21.13;100.00;100397.06;4918600;29;20043;-70
2023/09/17 09:17:01;;;;;;;5.47;3.70;;;;;;;21.32;94.80;100405.88;4918133;29;20087;-69
2023/09/17 09:20:10;;;;;;;7.20;3.65;;;;;;;21.44;92.95;100399.38;4918708;29;20058;-70
2023/09/17 09:23:14;;;;;;;5.25;3.20;;;;;;;21.56;85.32;100391.97;4906429;29;20087;-69
2023/09/17 09:26:17;;;;;;;7.07;3.08;;;;;;;21.67;84.92;100390.91;4916998;29;20054;-68
2023/09/17 09:29:21;;;;;;;6.13;3.30;;;;;;;21.79;80.84;100381.63;4915579;29;20103;-69
2023/09/17 09:32:24;;;;;;;7.47;3.40;;;;;;;21.89;80.47;100386.84;4894905;29;20103;-69
2023/09/17 09:35:29;;;;;;;8.23;3.67;;;;;;;21.85;84.28;100389.00;4917844;29;20051;-69
2023/09/17 09:38:32;;;;;;;10.50;3.35;;;;;;;21.92;78.96;100381.22;4917804;29;20059;-67
2023/09/17 09:41:35;;;;;;;7.30;3.10;;;;;;;21.97;76.90;100379.75;4917403;29;20135;-68
2023/09/17 09:44:38;;;;;;;6.30;2.78;;;;;;;22.12;76.18;100381.84;4894592;29;20111;-68
2023/09/17 09:47:49;;;;;;;5.68;3.10;;;;;;;22.14;79.03;100391.31;4917294;29;20096;-68
2023/09/17 09:50:53;;;;;;;4.78;2.70;;;;;;;22.13;80.05;100381.69;4917281;29;20099;-70
2023/09/17 09:53:56;;;;;;;5.03;2.75;;;;;;;22.30;74.38;100379.97;4916890;29;20111;-68
2023/09/17 09:57:02;;;;;;;5.25;3.13;;;;;;;22.36;73.72;100371.31;4916964;29;20072;-69
2023/09/17 10:00:10;;;;;;;5.50;2.95;;;;;;;22.33;74.78;100371.66;4916874;29;20271;-69
2023/09/17 10:03:17;;;;;;;6.97;2.40;;;;;;;22.27;76.35;100369.63;4916616;29;20467;-69
2023/09/17 10:06:20;;;;;;;8.80;3.25;;;;;;;22.27;74.67;100369.63;4916674;29;20122;-69
2023/09/17 10:09:28;;;;;;;3.50;2.45;;;;;;;22.43;74.03;100371.53;4917186;29;20415;-69
2023/09/17 10:12:39;;;;;;;4.25;2.63;;;;;;;22.52;77.32;100363.38;4905082;29;20051;-69
2023/09/17 10:15:58;;;;;;;5.50;2.58;;;;;;;22.65;74.23;100349.59;4916930;29;20473;-69
2023/09/17 10:19:06;;;;;;;4.55;2.47;;;;;;;22.89;71.57;100353.34;4917084;29;20403;-68
2023/09/17 10:22:12;;;;;;;4.38;2.17;;;;;;;22.89;72.14;100343.50;4916085;29;20198;-69
2023/09/17 10:25:18;;;;;;;4.55;2.70;;;;;;;22.85;73.36;100344.84;4915544;29;20048;-68
2023/09/17 10:28:23;;;;;;;7.03;2.17;;;;;;;22.98;72.81;100347.06;4916349;29;20178;-68
2023/09/17 10:31:27;;;;;;;4.97;2.75;;;;;;;23.27;71.40;100351.06;4916719;29;20042;-68
2023/09/17 10:34:32;;;;;;;5.97;2.50;;;;;;;23.39;71.13;100339.91;4916216;29;20135;-69
2023/09/17 10:37:38;;;;;;;3.63;2.42;;;;;;;23.59;69.82;100342.22;4915858;29;20102;-68
2023/09/17 10:40:42;;;;;;;4.03;2.50;;;;;;;23.37;69.95;100343.72;4916170;29;20370;-68
2023/09/17 10:43:47;;;;;;;3.47;2.33;;;;;;;23.35;69.61;100333.22;4916420;29;20142;-68
2023/09/17 10:46:52;;;;;;;5.97;2.60;;;;;;;23.35;69.35;100316.38;4916553;29;20055;-69
2023/09/17 10:49:55;;;;;;;6.05;2.85;;;;;;;23.34;69.03;100320.06;4916293;29;20054;-70
2023/09/17 10:53:02;;;;;;;4.57;2.35;;;;;;;23.35;70.67;100321.72;4916666;29;20468;-69
2023/09/17 10:56:13;;;;;;;5.82;2.83;;;;;;;23.59;69.12;100307.50;4915996;29;20055;-68
2023/09/17 10:59:32;;;;;;;6.50;2.35;;;;;;;23.79;66.85;100318.66;4916235;29;20064;-68
2023/09/17 11:02:37;;;;;;;5.13;2.40;;;;;;;23.69;67.37;100318.88;4915815;29;20099;-67
2023/09/17 11:05:41;;;;;;;5.10;2.40;;;;;;;23.73;66.91;100325.50;4915727;29;20051;-67
2023/09/17 11:08:46;;;;;;;4.68;2.13;;;;;;;23.72;66.91;100315.84;4915880;29;20095;-67
2023/09/17 11:11:50;;;;;;;6.30;2.50;;;;;;;23.95;68.67;100315.94;4915709;29;20107;-67
2023/09/17 11:14:53;;;;;;;6.70;2.95;;;;;;;23.97;67.67;100318.47;4915756;29;20415;-67
2023/09/17 11:17:58;;;;;;;4.93;2.30;;;;;;;23.86;66.28;100309.78;4915905;29;20179;-67
2023/09/17 11:21:06;;;;;;;5.13;2.83;;;;;;;23.96;66.18;100306.09;4915470;29;20126;-67
2023/09/17 11:24:12;;;;;;;8.90;2.47;;;;;;;23.93;66.09;100306.44;4915466;29;20134;-67
2023/09/17 11:27:20;;;;;;;5.28;2.58;;;;;;;24.10;65.50;100310.72;4915337;29;20051;-67
2023/09/17 11:30:24;;;;;;;3.67;2.17;;;;;;;24.17;66.19;100322.38;4915438;29;20050;-68
2023/09/17 11:33:29;;;;;;;7.22;2.72;;;;;;;24.28;65.45;100311.31;4915667;29;20050;-67
2023/09/17 11:36:34;;;;;;;4.90;2.70;;;;;;;24.51;62.11;100310.56;4915398;29;20387;-67
2023/09/17 11:39:50;;;;;;;9.90;2.50;;;;;;;24.43;63.69;100313.28;4915230;29;20055;-67
2023/09/17 11:42:55;;;;;;;4.78;1.90;;;;;;;24.53;62.53;100319.22;4915425;29;20096;-65
2023/09/17 11:46:04;;;;;;;8.18;2.35;;;;;;;24.42;62.43;100308.94;4915216;29;20598;-65
2023/09/17 11:49:08;;;;;;;6.22;2.83;;;;;;;24.41;62.37;100307.22;4915340;29;20067;-67
2023/09/17 11:52:12;;;;;;;6.60;2.60;;;;;;;24.46;62.69;100311.06;4915054;29;20079;-66
2023/09/17 11:55:24;;;;;;;4.38;2.40;;;;;;;24.61;61.10;100315.69;4915149;29;20135;-66
2023/09/17 11:58:32;;;;;;;7.13;2.45;;;;;;;24.81;59.54;100301.66;4914879;29;20054;-66
2023/09/17 12:01:44;;;;;;;3.63;2.05;;;;;;;25.08;59.27;100310.16;4914801;29;20104;-66
2023/09/17 12:04:49;;;;;;;4.97;2.20;;;;;;;25.28;58.29;100308.69;4914912;29;20413;-67
2023/09/17 12:07:52;;;;;;;4.78;2.20;;;;;;;25.50;56.10;100314.16;4914971;29;20143;-78
2023/09/17 12:11:02;;;;;;;6.13;2.08;;;;;;;25.66;56.22;100307.81;4915252;29;20055;-78
2023/09/17 12:14:06;;;;;;;5.18;1.73;;;;;;;25.82;55.95;100309.50;4915219;29;20423;-79
2023/09/17 12:17:10;;;;;;;3.95;1.70;;;;;;;25.79;56.13;100301.81;4903452;29;20529;-80
2023/09/17 12:20:33;;;;;;;4.97;2.25;;;;;;;25.70;57.32;100304.56;4914871;29;20471;-78
2023/09/17 12:24:25;;;;;;;5.45;2.05;;;;;;;25.95;61.14;100307.00;4914845;29;20078;-78
2023/09/17 12:30:26;;;;;;;4.50;1.80;;;;;;;26.03;58.17;100304.22;4915254;29;20514;-79
2023/09/17 12:33:30;;;;;;;6.32;2.30;;;;;;;26.35;56.29;100305.66;4915249;29;20055;-79
2023/09/17 12:36:39;;;;;;;6.35;2.22;;;;;;;26.59;55.75;100298.31;4915176;29;20134;-80
2023/09/17 12:39:44;;;;;;;3.63;2.10;;;;;;;27.02;54.80;100309.88;4914922;29;20115;-79
2023/09/17 12:42:48;;;;;;;6.43;2.17;;;;;;;27.28;52.45;100298.59;4915400;29;20164;-79
2023/09/17 12:45:51;;;;;;;3.92;1.92;;;;;;;27.50;51.08;100299.34;4914964;29;20112;-80
2023/09/17 12:49:04;;;;;;;7.13;2.30;;;;;;;27.77;50.58;100296.88;4915032;29;20127;-83
2023/09/17 12:52:09;;;;;;;6.68;1.92;;;;;;;27.42;50.71;100282.56;4903594;29;20051;-80
2023/09/17 12:55:13;;;;;;;5.70;2.05;;;;;;;27.74;50.69;100281.13;4899958;29;20120;-76
2023/09/17 12:58:19;;;;;;;5.55;2.10;;;;;;;27.73;49.66;100296.41;4912285;29;20186;-78
2023/09/17 13:01:22;;;;;;;6.32;2.35;;;;;;;27.59;50.32;100300.03;4913038;29;20039;-78
2023/09/17 13:04:33;;;;;;;6.43;2.80;;;;;;;28.52;48.57;100295.13;4913445;29;20147;-79
2023/09/17 13:07:37;;;;;;;3.72;2.05;;;;;;;28.97;46.88;100292.72;4912208;29;20155;-80
2023/09/17 13:10:41;;;;;;;3.90;2.15;;;;;;;29.54;45.87;100287.75;4912748;29;20115;-79
2023/09/17 13:13:46;;;;;;;7.45;2.33;;;;;;;29.43;45.38;100276.56;4912921;29;20525;-79
2023/09/17 13:16:49;;;;;;;5.75;2.20;;;;;;;30.87;43.26;100271.84;4913654;29;20422;-80
2023/09/17 13:19:52;;;;;;;4.45;2.20;;;;;;;28.85;46.77;100270.16;4911101;29;20574;-80
2023/09/17 13:22:57;;;;;;;7.93;2.67;;;;;;;31.84;40.29;100260.53;4911931;29;20050;-80
2023/09/17 13:26:00;;;;;;;7.63;2.50;;;;;;;33.42;36.89;100258.44;4912435;29;20043;-79
2023/09/17 13:29:04;;;;;;;4.40;1.90;;;;;;;33.29;36.57;100251.38;4912834;29;20387;-79
2023/09/17 13:32:09;;;;;;;4.75;1.92;;;;;;;33.81;35.72;100248.72;4912683;29;20119;-80
2023/09/17 13:35:15;;;;;;;4.97;2.00;;;;;;;32.84;37.10;100250.03;4913221;29;20563;-77
2023/09/17 13:38:19;;;;;;;6.20;2.50;;;;;;;33.56;36.12;100247.09;4917075;29;20088;-79
2023/09/17 13:41:28;;;;;;;6.55;2.15;;;;;;;33.73;35.69;100240.97;4918790;29;20163;-82
2023/09/17 13:44:33;;;;;;;5.93;2.47;;;;;;;33.36;37.65;100243.13;4917467;29;20147;-77
2023/09/17 13:47:36;;;;;;;5.85;1.88;;;;;;;32.46;37.92;100231.47;4918382;29;20082;-75
2023/09/17 13:50:40;;;;;;;7.93;2.25;;;;;;;33.05;39.39;100228.88;4917587;29;20406;-79
2023/09/17 13:53:44;;;;;;;5.22;2.00;;;;;;;32.04;40.75;100228.72;4917777;29;20176;-78
2023/09/17 13:56:47;;;;;;;5.35;1.98;;;;;;;31.71;43.82;100221.78;4915800;29;20050;-77
2023/09/17 13:59:52;;;;;;;5.53;2.38;;;;;;;33.88;41.03;100216.84;4912577;29;20434;-78
2023/09/17 14:02:55;;;;;;;3.95;1.83;;;;;;;34.64;38.50;100216.66;4914117;29;20219;-77
2023/09/17 14:05:58;;;;;;;5.05;2.38;;;;;;;37.36;32.84;100207.72;4915656;29;20107;-78
2023/09/17 14:09:02;;;;;;;3.83;1.80;;;;;;;37.34;30.60;100207.16;4914677;29;20487;-79
2023/09/17 14:12:07;;;;;;;7.68;2.58;;;;;;;35.37;32.12;100206.63;4914644;29;20080;-79
2023/09/17 14:16:01;;;;;;;8.25;2.30;;;;;;;36.05;32.80;100201.75;4914375;29;20095;-72
2023/09/17 14:19:05;;;;;;;7.07;2.05;;;;;;;36.35;34.53;100195.00;4912679;29;20512;-78